aviador You're here:

PAPO Decoded Metar

POINT HOPE in AK, USA
Report Time2018-07-20 18:24:00
UTC Time2018-07-20 18:37:40
Flight Rules ifr IFR
Wind210° at 15 kt
W.Decomp.*RWY 19: 14.8 kt HW 2.3 kt RCW
W.Rank210° ranks 28
Current wind is above 210° avg. (10.0)
Visibility9999 m
Phenomena:Light Rain
Clouds:Overcast 007 Hf
Expected CloudBase > 400 ft AGL from Temp-Dew spread
Ceiling700 ft
Temp09°C (ISA -6)
Dew Point08°C (94% RH)
AAT3.2°C
QNH1021 hPa
Density Alt-820 ft
Elevation20 ft
Report Wrong Elevation
Raw Report
PAPO 201824Z AUTO 21015KT 10SM -RA OVC007 09/08 A3014 RMK AO2
P0000=

Extra information for PAPO:More info

Metar Taf Metar & Taf Last 4 Metars F.Rules Stats Wind Profile Meteogram Temp Stats Airport Information Weather charts Add Link Nearby VenuesMetar ALERT Operation Metar Decoded Social comments

AIRNAV info for PAPO